Terminal Aerodrome Forecast
Issued by NWS

Home | Current Version | Previous Version | Text Only | Print | Product List | Glossary On
Versions: 1 2 3 4 5 6 7 8 9 10 11 12 13 14 15 16
432
FTUS41 KBGM 172322
TAFRME
TAF
KRME 172322Z 1800/1824 VRB03KT P6SM SCT250 WS020/26035KT
     FM180900 VRB03KT P6SM SCT250
     FM181400 24005KT P6SM SKC=

USA.gov is the U.S. government's official web portal to all federal, state and local government web resources and services.